Time;durP1;ratioP1;P1;durP2;ratioP2;P2;SDS_P1;SDS_P2;PMS_P1;PMS_P2;Temp;Humidity;BMP_temperature;BMP_pressure;BME280_temperature;BME280_humidity;BME280_pressure;Samples;Min_cycle;Max_cycle;Signal;HPM_P1;HPM_P2
2021/11/06 00:01:56;;;;;;;26.05;3.75;;;;;;;;;;5033485;28;20117;-84
2021/11/06 00:04:21;;;;;;;21.00;3.40;;;;;;;;;;5033533;28;20469;-84
2021/11/06 00:06:46;;;;;;;27.15;3.45;;;;;;;;;;5034022;28;20279;-84
2021/11/06 00:09:12;;;;;;;27.77;4.00;;;;;;;;;;5051525;28;20032;-84
2021/11/06 00:11:37;;;;;;;18.15;4.25;;;;;;;;;;5051508;28;20478;-84
2021/11/06 00:14:02;;;;;;;33.45;3.85;;;;;;;;;;5034137;28;20031;-84
2021/11/06 00:16:28;;;;;;;28.60;4.83;;;;;;;;;;5035832;28;20484;-83
2021/11/06 00:18:53;;;;;;;28.30;4.10;;;;;;;;;;5036057;28;20279;-83
2021/11/06 00:21:18;;;;;;;26.77;3.58;;;;;;;;;;5035935;28;20907;-83
2021/11/06 00:23:43;;;;;;;20.83;3.35;;;;;;;;;;5043168;28;20089;-83
2021/11/06 00:26:08;;;;;;;21.35;3.33;;;;;;;;;;5037515;28;20029;-83
2021/11/06 00:28:34;;;;;;;24.00;3.77;;;;;;;;;;5035689;28;20104;-83
2021/11/06 00:30:59;;;;;;;28.10;3.88;;;;;;;;;;5051847;28;20299;-83
2021/11/06 00:33:24;;;;;;;18.07;2.90;;;;;;;;;;5033459;28;20062;-83
2021/11/06 00:35:49;;;;;;;25.50;3.30;;;;;;;;;;5052625;28;20346;-83
2021/11/06 00:38:14;;;;;;;14.68;2.35;;;;;;;;;;5047311;28;20260;-83
2021/11/06 00:40:40;;;;;;;21.48;3.53;;;;;;;;;;5032491;28;20029;-83
2021/11/06 00:43:05;;;;;;;18.33;3.55;;;;;;;;;;5032736;28;20432;-83
2021/11/06 00:45:30;;;;;;;19.88;2.85;;;;;;;;;;5032592;28;20477;-84
2021/11/06 00:47:56;;;;;;;23.70;3.08;;;;;;;;;;5032457;28;20036;-83
2021/11/06 00:50:21;;;;;;;11.77;2.20;;;;;;;;;;5050868;28;20097;-83
2021/11/06 00:52:47;;;;;;;10.40;2.35;;;;;;;;;;5047421;28;20061;-83
2021/11/06 00:55:13;;;;;;;12.98;2.53;;;;;;;;;;5050769;28;20047;-83
2021/11/06 00:57:38;;;;;;;16.40;2.63;;;;;;;;;;5050896;28;20025;-83
2021/11/06 01:00:05;;;;;;;15.38;3.40;;;;;;;;;;5032681;28;20048;-83
2021/11/06 01:02:30;;;;;;;15.77;2.58;;;;;;;;;;5032582;28;20555;-83
2021/11/06 01:04:55;;;;;;;22.80;2.97;;;;;;;;;;5050516;28;20032;-83
2021/11/06 01:07:21;;;;;;;16.23;3.20;;;;;;;;;;5032908;28;20071;-83
2021/11/06 01:09:46;;;;;;;9.80;2.30;;;;;;;;;;5050711;28;20743;-83
2021/11/06 01:12:11;;;;;;;15.43;2.60;;;;;;;;;;5050960;28;20361;-83
2021/11/06 01:14:37;;;;;;;18.67;3.22;;;;;;;;;;5050165;28;20110;-84
2021/11/06 01:17:02;;;;;;;18.55;2.85;;;;;;;;;;5050585;28;20013;-83
2021/11/06 01:19:28;;;;;;;18.77;3.03;;;;;;;;;;5069452;28;20375;-83
2021/11/06 01:21:53;;;;;;;20.98;4.05;;;;;;;;;;5072753;28;20020;-83
2021/11/06 01:24:18;;;;;;;12.05;3.08;;;;;;;;;;5055515;28;20021;-83
2021/11/06 01:26:44;;;;;;;20.92;3.15;;;;;;;;;;5057321;28;20021;-83
2021/11/06 01:29:09;;;;;;;26.42;4.10;;;;;;;;;;5054775;28;20020;-83
2021/11/06 01:31:34;;;;;;;11.77;2.70;;;;;;;;;;5074671;28;20154;-83
2021/11/06 01:34:00;;;;;;;17.55;3.08;;;;;;;;;;5056355;28;20017;-83
2021/11/06 01:36:25;;;;;;;22.65;3.08;;;;;;;;;;5052748;28;20489;-83
2021/11/06 01:38:51;;;;;;;20.50;4.05;;;;;;;;;;5052745;28;20511;-83
2021/11/06 01:41:19;;;;;;;17.58;3.75;;;;;;;;;;5054658;28;20025;-83
2021/11/06 01:43:44;;;;;;;14.48;2.83;;;;;;;;;;5054329;28;20566;-83
2021/11/06 01:46:09;;;;;;;23.13;3.30;;;;;;;;;;5057917;28;20013;-83
2021/11/06 01:48:35;;;;;;;25.38;3.72;;;;;;;;;;5052029;28;20020;-82
2021/11/06 01:51:00;;;;;;;22.38;3.42;;;;;;;;;;5053297;28;20119;-84
2021/11/06 01:53:26;;;;;;;22.42;3.47;;;;;;;;;;5052857;28;20045;-83
2021/11/06 01:55:52;;;;;;;24.25;3.60;;;;;;;;;;5052465;28;20021;-83
2021/11/06 01:58:19;;;;;;;21.50;3.67;;;;;;;;;;5052811;28;20023;-83
2021/11/06 02:00:44;;;;;;;17.42;3.05;;;;;;;;;;5054242;28;20021;-83
2021/11/06 02:03:09;;;;;;;18.92;3.35;;;;;;;;;;5054288;28;20047;-83
2021/11/06 02:05:35;;;;;;;24.95;3.65;;;;;;;;;;5057166;28;20024;-83
2021/11/06 02:08:00;;;;;;;28.90;3.40;;;;;;;;;;5052329;28;20024;-83
2021/11/06 02:10:25;;;;;;;21.20;4.32;;;;;;;;;;5052108;28;20027;-83
2021/11/06 02:12:53;;;;;;;17.83;3.10;;;;;;;;;;5053781;28;20029;-84
2021/11/06 02:15:18;;;;;;;22.45;4.68;;;;;;;;;;5054002;28;20029;-84
2021/11/06 02:17:44;;;;;;;21.05;4.15;;;;;;;;;;5052697;28;20385;-84
2021/11/06 02:20:09;;;;;;;15.63;2.65;;;;;;;;;;5057802;28;20017;-84
2021/11/06 02:22:35;;;;;;;25.70;3.80;;;;;;;;;;5057990;28;20033;-84
2021/11/06 02:25:00;;;;;;;17.08;3.45;;;;;;;;;;5059645;28;20759;-84
2021/11/06 02:27:25;;;;;;;23.52;4.28;;;;;;;;;;5055475;28;20013;-83
2021/11/06 02:29:51;;;;;;;23.43;4.30;;;;;;;;;;5056657;28;20500;-84
2021/11/06 02:32:16;;;;;;;24.17;4.18;;;;;;;;;;5057419;28;20394;-84
2021/11/06 02:34:42;;;;;;;27.98;5.38;;;;;;;;;;5056666;28;20060;-84
2021/11/06 02:37:07;;;;;;;24.30;4.35;;;;;;;;;;5055376;28;20110;-84
2021/11/06 02:39:32;;;;;;;16.13;3.07;;;;;;;;;;5057355;28;20025;-84
2021/11/06 02:41:59;;;;;;;36.38;6.07;;;;;;;;;;5057434;28;20263;-84
2021/11/06 02:44:24;;;;;;;24.02;3.53;;;;;;;;;;5057467;28;20013;-84
2021/11/06 02:46:49;;;;;;;21.15;3.88;;;;;;;;;;5055946;28;20385;-83
2021/11/06 02:49:14;;;;;;;26.10;3.80;;;;;;;;;;5056497;28;20042;-84
2021/11/06 02:51:40;;;;;;;26.87;4.40;;;;;;;;;;5055537;28;20290;-84
2021/11/06 02:54:05;;;;;;;23.60;3.83;;;;;;;;;;5055254;28;20255;-84
2021/11/06 02:56:30;;;;;;;24.90;3.72;;;;;;;;;;5055921;28;20024;-84
2021/11/06 02:58:56;;;;;;;24.27;3.47;;;;;;;;;;5055379;28;20116;-84
2021/11/06 03:01:22;;;;;;;24.75;4.13;;;;;;;;;;5056708;28;20043;-84
2021/11/06 03:03:48;;;;;;;30.05;3.95;;;;;;;;;;5060631;28;20108;-84
2021/11/06 03:06:13;;;;;;;18.27;3.60;;;;;;;;;;5055690;28;20100;-83
2021/11/06 03:08:39;;;;;;;23.35;3.47;;;;;;;;;;5056042;28;20028;-84
2021/11/06 03:11:04;;;;;;;28.52;3.85;;;;;;;;;;5056031;28;20021;-84
2021/11/06 03:13:30;;;;;;;20.88;3.75;;;;;;;;;;5056497;28;20028;-84
2021/11/06 03:15:55;;;;;;;20.02;3.92;;;;;;;;;;5056361;28;20009;-83
2021/11/06 03:18:20;;;;;;;19.27;3.80;;;;;;;;;;5056636;28;20032;-84
2021/11/06 03:20:45;;;;;;;18.75;3.92;;;;;;;;;;5056801;28;20333;-84
2021/11/06 03:23:11;;;;;;;24.13;3.93;;;;;;;;;;5057125;28;20036;-84
2021/11/06 03:25:36;;;;;;;21.25;3.13;;;;;;;;;;5058937;28;20252;-84
2021/11/06 03:28:01;;;;;;;15.50;2.70;;;;;;;;;;5053955;28;20026;-84
2021/11/06 03:30:27;;;;;;;14.95;2.80;;;;;;;;;;5055197;28;20381;-84
2021/11/06 03:32:52;;;;;;;27.08;5.18;;;;;;;;;;5054073;28;20044;-84
2021/11/06 03:35:18;;;;;;;23.73;4.10;;;;;;;;;;5055773;28;20023;-84
2021/11/06 03:37:43;;;;;;;24.20;3.92;;;;;;;;;;5074125;28;20048;-84
2021/11/06 03:40:09;;;;;;;21.88;4.10;;;;;;;;;;5057949;28;20016;-84
2021/11/06 03:42:34;;;;;;;20.75;3.42;;;;;;;;;;5075927;28;20039;-84
2021/11/06 03:45:00;;;;;;;24.08;4.10;;;;;;;;;;5076157;28;20732;-84
2021/11/06 03:47:25;;;;;;;24.27;4.07;;;;;;;;;;5060624;28;20012;-84
2021/11/06 03:49:51;;;;;;;22.02;2.90;;;;;;;;;;5075098;28;20023;-84
2021/11/06 03:52:16;;;;;;;20.23;3.15;;;;;;;;;;5074894;28;20419;-83
2021/11/06 03:54:42;;;;;;;15.88;3.28;;;;;;;;;;5056949;28;20108;-83
2021/11/06 03:57:07;;;;;;;14.57;3.03;;;;;;;;;;5057446;28;20027;-84
2021/11/06 03:59:32;;;;;;;24.55;3.33;;;;;;;;;;5075532;28;20016;-83
2021/11/06 04:01:58;;;;;;;19.70;4.00;;;;;;;;;;5075605;28;20009;-84
2021/11/06 04:04:23;;;;;;;26.63;3.97;;;;;;;;;;5075804;28;20067;-84
2021/11/06 04:06:48;;;;;;;18.87;2.97;;;;;;;;;;5076433;28;20020;-83
2021/11/06 04:09:13;;;;;;;16.52;3.65;;;;;;;;;;5074759;28;20255;-84
2021/11/06 04:11:39;;;;;;;22.83;3.13;;;;;;;;;;5074707;28;20031;-84
2021/11/06 04:14:04;;;;;;;20.38;2.90;;;;;;;;;;5075500;28;20342;-83
2021/11/06 04:16:29;;;;;;;12.02;2.75;;;;;;;;;;5075653;28;20031;-83
2021/11/06 04:18:54;;;;;;;17.60;3.28;;;;;;;;;;5057473;28;20016;-84
2021/11/06 04:21:19;;;;;;;29.50;4.77;;;;;;;;;;5075701;28;20345;-84
2021/11/06 04:23:45;;;;;;;24.58;3.45;;;;;;;;;;5078552;28;20259;-84
2021/11/06 04:26:11;;;;;;;15.90;3.13;;;;;;;;;;5073533;28;20107;-83
2021/11/06 04:28:37;;;;;;;21.10;3.47;;;;;;;;;;5056684;28;20032;-83
2021/11/06 04:31:02;;;;;;;17.83;2.92;;;;;;;;;;5074239;28;20025;-83
2021/11/06 04:33:27;;;;;;;22.42;3.97;;;;;;;;;;5057152;28;20391;-84
2021/11/06 04:35:53;;;;;;;13.45;2.80;;;;;;;;;;5056949;28;20127;-83
2021/11/06 04:38:18;;;;;;;18.08;2.95;;;;;;;;;;5057130;28;20035;-84
2021/11/06 04:40:43;;;;;;;33.00;3.92;;;;;;;;;;5074859;28;20024;-84
2021/11/06 04:43:08;;;;;;;20.88;3.55;;;;;;;;;;5062034;28;20009;-84
2021/11/06 04:45:34;;;;;;;15.20;2.70;;;;;;;;;;5073509;28;20071;-84
2021/11/06 04:47:59;;;;;;;20.23;3.33;;;;;;;;;;5056740;28;20270;-83
2021/11/06 04:50:24;;;;;;;18.33;2.72;;;;;;;;;;5056638;28;20259;-84
2021/11/06 04:52:49;;;;;;;15.88;2.78;;;;;;;;;;5056286;28;20032;-84
2021/11/06 04:55:15;;;;;;;15.15;2.25;;;;;;;;;;5056958;28;20013;-83
2021/11/06 04:57:41;;;;;;;20.45;2.55;;;;;;;;;;5074692;28;20020;-84
2021/11/06 05:00:08;;;;;;;14.23;2.97;;;;;;;;;;5077636;28;20077;-84
2021/11/06 05:02:33;;;;;;;10.50;2.38;;;;;;;;;;5075079;28;20035;-84
2021/11/06 05:04:58;;;;;;;12.93;2.25;;;;;;;;;;5073781;28;20024;-83
2021/11/06 05:07:24;;;;;;;11.15;2.20;;;;;;;;;;5074206;28;20020;-83
2021/11/06 05:09:49;;;;;;;7.22;1.63;;;;;;;;;;5074239;28;20107;-84
2021/11/06 05:12:15;;;;;;;7.63;1.95;;;;;;;;;;5056159;28;20044;-84
2021/11/06 05:14:40;;;;;;;13.68;2.28;;;;;;;;;;5074410;28;20066;-84
2021/11/06 05:17:06;;;;;;;13.63;2.30;;;;;;;;;;5074289;28;20040;-84
2021/11/06 05:19:31;;;;;;;11.00;2.30;;;;;;;;;;5077291;28;20764;-84
2021/11/06 05:21:57;;;;;;;7.75;2.10;;;;;;;;;;5072754;28;20021;-84
2021/11/06 05:24:22;;;;;;;12.55;2.08;;;;;;;;;;5073557;28;20028;-84
2021/11/06 05:26:47;;;;;;;14.03;2.83;;;;;;;;;;5073242;28;20023;-84
2021/11/06 05:29:12;;;;;;;13.55;1.83;;;;;;;;;;5073825;28;20769;-84
2021/11/06 05:31:39;;;;;;;9.77;1.95;;;;;;;;;;5074160;28;20032;-84
2021/11/06 05:34:04;;;;;;;9.65;2.25;;;;;;;;;;5056422;28;20833;-84
2021/11/06 05:36:30;;;;;;;11.52;2.30;;;;;;;;;;5056502;28;20049;-84
2021/11/06 05:38:56;;;;;;;11.63;1.95;;;;;;;;;;5058167;28;20021;-84
2021/11/06 05:41:21;;;;;;;17.20;2.13;;;;;;;;;;5072491;28;20488;-84
2021/11/06 05:43:47;;;;;;;12.20;2.70;;;;;;;;;;5073233;28;20021;-84
2021/11/06 05:46:12;;;;;;;12.15;2.90;;;;;;;;;;5055493;28;20043;-84
2021/11/06 05:48:38;;;;;;;15.52;3.00;;;;;;;;;;5055459;28;20400;-84
2021/11/06 05:51:03;;;;;;;20.95;2.53;;;;;;;;;;5055502;28;20031;-84
2021/11/06 05:53:28;;;;;;;17.23;3.60;;;;;;;;;;5056752;28;20127;-84
2021/11/06 05:55:53;;;;;;;16.73;2.55;;;;;;;;;;5082729;28;20016;-84
2021/11/06 05:58:19;;;;;;;16.58;3.17;;;;;;;;;;5076494;28;20100;-84
2021/11/06 06:00:44;;;;;;;15.45;2.63;;;;;;;;;;5076785;28;20044;-83
2021/11/06 06:03:09;;;;;;;17.23;3.28;;;;;;;;;;5076950;28;20106;-83
2021/11/06 06:05:34;;;;;;;15.90;4.38;;;;;;;;;;5059074;28;20019;-83
2021/11/06 06:08:00;;;;;;;18.45;2.70;;;;;;;;;;5059266;28;20047;-84
2021/11/06 06:10:25;;;;;;;12.23;2.95;;;;;;;;;;5077670;28;20021;-84
2021/11/06 06:12:51;;;;;;;24.42;2.95;;;;;;;;;;5059560;28;20165;-83
2021/11/06 06:15:16;;;;;;;28.98;4.65;;;;;;;;;;5077589;28;20369;-83
2021/11/06 06:17:42;;;;;;;19.20;3.30;;;;;;;;;;5085660;28;20025;-83
2021/11/06 06:20:08;;;;;;;12.27;2.67;;;;;;;;;;5079227;28;20016;-84
2021/11/06 06:22:33;;;;;;;11.13;2.40;;;;;;;;;;5076553;28;20558;-84
2021/11/06 06:24:59;;;;;;;16.00;2.58;;;;;;;;;;5058022;28;20017;-83
2021/11/06 06:27:24;;;;;;;19.63;3.03;;;;;;;;;;5058846;28;20009;-84
2021/11/06 06:29:49;;;;;;;14.90;3.23;;;;;;;;;;5076551;28;20346;-83
2021/11/06 06:32:15;;;;;;;13.88;2.90;;;;;;;;;;5077172;28;20290;-84
2021/11/06 06:34:40;;;;;;;15.13;2.95;;;;;;;;;;5058883;28;20012;-85
2021/11/06 06:37:05;;;;;;;16.85;2.80;;;;;;;;;;5076705;28;20040;-84
2021/11/06 06:39:30;;;;;;;16.27;3.33;;;;;;;;;;5076646;28;20357;-83
2021/11/06 06:41:56;;;;;;;17.35;4.00;;;;;;;;;;5079224;28;20361;-84
2021/11/06 06:44:21;;;;;;;14.05;2.92;;;;;;;;;;5057366;28;20017;-84
2021/11/06 06:46:46;;;;;;;16.58;2.90;;;;;;;;;;5057816;28;20025;-83
2021/11/06 06:49:12;;;;;;;21.15;3.88;;;;;;;;;;5057980;28;20392;-83
2021/11/06 06:51:37;;;;;;;16.75;2.47;;;;;;;;;;5076187;28;20032;-84
2021/11/06 06:54:02;;;;;;;17.43;3.20;;;;;;;;;;5058462;28;20032;-83
2021/11/06 06:56:27;;;;;;;18.38;3.28;;;;;;;;;;5076742;28;20266;-83
2021/11/06 06:58:52;;;;;;;8.90;2.00;;;;;;;;;;5076770;28;20024;-84
2021/11/06 07:01:18;;;;;;;10.90;2.92;;;;;;;;;;5059534;28;20270;-83
2021/11/06 07:03:43;;;;;;;15.87;2.30;;;;;;;;;;5057416;28;20056;-83
2021/11/06 07:06:08;;;;;;;17.15;3.60;;;;;;;;;;5075532;28;20334;-83
2021/11/06 07:08:33;;;;;;;14.73;3.37;;;;;;;;;;5076286;28;20051;-83
2021/11/06 07:10:58;;;;;;;13.73;2.50;;;;;;;;;;5076343;28;20370;-83
2021/11/06 07:13:24;;;;;;;12.82;2.38;;;;;;;;;;5076518;28;20251;-84
2021/11/06 07:15:49;;;;;;;24.52;4.13;;;;;;;;;;5058212;28;20491;-83
2021/11/06 07:18:15;;;;;;;18.42;2.65;;;;;;;;;;5058546;28;20652;-83
2021/11/06 07:20:40;;;;;;;16.42;2.67;;;;;;;;;;5061000;28;20020;-83
2021/11/06 07:23:06;;;;;;;13.95;2.58;;;;;;;;;;5057027;28;20392;-83
2021/11/06 07:25:31;;;;;;;13.70;2.10;;;;;;;;;;5058168;28;20051;-83
2021/11/06 07:27:56;;;;;;;14.65;2.67;;;;;;;;;;5076039;28;20028;-83
2021/11/06 07:30:22;;;;;;;10.65;1.90;;;;;;;;;;5076055;28;20012;-83
2021/11/06 07:32:48;;;;;;;15.30;2.47;;;;;;;;;;5075966;28;20028;-83
2021/11/06 07:35:13;;;;;;;17.63;3.00;;;;;;;;;;5057831;28;20070;-83
2021/11/06 07:37:38;;;;;;;16.98;2.70;;;;;;;;;;5058963;28;20041;-83
2021/11/06 07:40:07;;;;;;;20.42;3.20;;;;;;;;;;5057197;28;20031;-83
2021/11/06 07:42:32;;;;;;;12.20;2.78;;;;;;;;;;5056289;28;20029;-83
2021/11/06 07:44:58;;;;;;;13.55;2.40;;;;;;;;;;5057186;28;20013;-83
2021/11/06 07:47:23;;;;;;;13.00;2.88;;;;;;;;;;5075799;28;20017;-83
2021/11/06 07:49:48;;;;;;;12.85;1.95;;;;;;;;;;5057628;28;20021;-84
2021/11/06 07:52:13;;;;;;;8.38;2.10;;;;;;;;;;5075930;28;20033;-84
2021/11/06 07:54:39;;;;;;;13.23;2.42;;;;;;;;;;5076709;28;20035;-84
2021/11/06 07:57:04;;;;;;;22.20;3.57;;;;;;;;;;5077304;28;20013;-84
2021/11/06 07:59:29;;;;;;;19.35;2.72;;;;;;;;;;5074542;28;20254;-84
2021/11/06 08:01:54;;;;;;;12.75;2.75;;;;;;;;;;5057007;28;20024;-85
2021/11/06 08:04:20;;;;;;;13.75;2.60;;;;;;;;;;5057030;28;20027;-84
2021/11/06 08:06:45;;;;;;;9.93;2.67;;;;;;;;;;5075641;28;20019;-84
2021/11/06 08:09:11;;;;;;;10.87;1.80;;;;;;;;;;5057344;28;20362;-84
2021/11/06 08:11:36;;;;;;;14.30;2.05;;;;;;;;;;5075442;28;20355;-84
2021/11/06 08:14:01;;;;;;;14.13;1.90;;;;;;;;;;5058067;28;20070;-84
2021/11/06 08:16:26;;;;;;;14.35;2.13;;;;;;;;;;5055665;28;20267;-84
2021/11/06 08:18:52;;;;;;;10.93;1.95;;;;;;;;;;5056322;28;20419;-84
2021/11/06 08:21:17;;;;;;;14.63;2.10;;;;;;;;;;5074360;28;20517;-84
2021/11/06 08:23:42;;;;;;;26.20;3.47;;;;;;;;;;5074695;28;20746;-84
2021/11/06 08:26:08;;;;;;;12.15;2.35;;;;;;;;;;5056997;28;20020;-84
2021/11/06 08:28:33;;;;;;;9.18;2.38;;;;;;;;;;5056585;28;20107;-84
2021/11/06 08:30:59;;;;;;;18.30;2.35;;;;;;;;;;5070951;28;20024;-84
2021/11/06 08:33:24;;;;;;;13.20;3.13;;;;;;;;;;5051459;28;20025;-84
2021/11/06 08:35:49;;;;;;;16.80;2.97;;;;;;;;;;5043724;28;20045;-84
2021/11/06 08:38:15;;;;;;;12.73;3.63;;;;;;;;;;5040180;28;20033;-85
2021/11/06 08:40:41;;;;;;;13.98;2.75;;;;;;;;;;5052993;28;20041;-84
2021/11/06 08:43:06;;;;;;;14.35;3.05;;;;;;;;;;5032845;28;20028;-84
2021/11/06 08:45:31;;;;;;;17.27;3.08;;;;;;;;;;5032832;28;20147;-84
2021/11/06 08:47:56;;;;;;;21.58;3.20;;;;;;;;;;5051489;28;20075;-85
2021/11/06 08:50:24;;;;;;;12.55;2.72;;;;;;;;;;5051322;28;20021;-85
2021/11/06 08:52:50;;;;;;;13.95;3.03;;;;;;;;;;5051393;28;20473;-85
2021/11/06 08:55:15;;;;;;;13.13;2.55;;;;;;;;;;5051232;28;20078;-84
2021/11/06 08:57:41;;;;;;;11.48;2.40;;;;;;;;;;5033826;28;20032;-84
2021/11/06 09:00:08;;;;;;;17.00;3.20;;;;;;;;;;5053319;28;20024;-84
2021/11/06 09:02:34;;;;;;;11.35;2.58;;;;;;;;;;5032493;28;20078;-84
2021/11/06 09:04:59;;;;;;;16.83;2.90;;;;;;;;;;5050571;28;20705;-84
2021/11/06 09:07:25;;;;;;;11.48;2.35;;;;;;;;;;5049606;28;20021;-85
2021/11/06 09:09:50;;;;;;;21.33;3.53;;;;;;;;;;5050674;28;20032;-85
2021/11/06 09:12:15;;;;;;;16.47;3.17;;;;;;;;;;5050778;28;20086;-85
2021/11/06 09:14:40;;;;;;;18.80;3.58;;;;;;;;;;5070908;28;20691;-84
2021/11/06 09:17:05;;;;;;;19.70;4.35;;;;;;;;;;5070442;28;20528;-85
2021/11/06 09:19:31;;;;;;;18.38;3.25;;;;;;;;;;5052516;28;20024;-85
2021/11/06 09:21:56;;;;;;;19.30;3.15;;;;;;;;;;5070769;28;20020;-85
2021/11/06 09:24:21;;;;;;;21.50;3.45;;;;;;;;;;5068326;28;20021;-85
2021/11/06 09:26:47;;;;;;;21.35;4.50;;;;;;;;;;5049390;28;20048;-84
2021/11/06 09:29:12;;;;;;;22.40;4.35;;;;;;;;;;5053216;28;20078;-84
2021/11/06 09:31:38;;;;;;;15.82;4.20;;;;;;;;;;5054510;28;20102;-84
2021/11/06 09:34:05;;;;;;;18.50;3.80;;;;;;;;;;5054477;28;20053;-84
2021/11/06 09:36:30;;;;;;;27.63;4.70;;;;;;;;;;5054502;28;20076;-85
2021/11/06 09:38:57;;;;;;;22.60;4.57;;;;;;;;;;5054616;28;20067;-84
2021/11/06 09:41:22;;;;;;;27.98;4.93;;;;;;;;;;5052966;28;20052;-84
2021/11/06 09:43:47;;;;;;;23.08;5.20;;;;;;;;;;5054548;28;20063;-84
2021/11/06 09:46:14;;;;;;;23.50;5.07;;;;;;;;;;5054382;28;20021;-84
2021/11/06 09:48:40;;;;;;;22.70;6.13;;;;;;;;;;5054208;28;20017;-84
2021/11/06 09:51:07;;;;;;;33.97;5.43;;;;;;;;;;5053785;28;20037;-84
2021/11/06 09:53:40;;;;;;;35.67;6.68;;;;;;;;;;5054397;28;20806;-84
2021/11/06 09:56:05;;;;;;;23.52;5.20;;;;;;;;;;5053934;28;20441;-84
2021/11/06 09:58:31;;;;;;;24.88;6.03;;;;;;;;;;5054331;28;20027;-84
2021/11/06 10:00:56;;;;;;;27.23;6.70;;;;;;;;;;5052938;28;20059;-84
2021/11/06 10:03:22;;;;;;;32.13;6.35;;;;;;;;;;5054793;28;20036;-84
2021/11/06 10:05:51;;;;;;;24.80;6.77;;;;;;;;;;5054726;28;20025;-84
2021/11/06 10:08:16;;;;;;;29.48;8.38;;;;;;;;;;5052919;28;20341;-84
2021/11/06 10:10:41;;;;;;;28.85;8.73;;;;;;;;;;5052931;28;20033;-84
2021/11/06 10:13:06;;;;;;;31.38;9.43;;;;;;;;;;5052232;28;20033;-84
2021/11/06 10:15:40;;;;;;;37.63;10.20;;;;;;;;;;5052253;28;20037;-84
2021/11/06 10:18:12;;;;;;;25.95;8.52;;;;;;;;;;5070272;28;20070;-84
2021/11/06 10:20:39;;;;;;;27.10;10.13;;;;;;;;;;5073845;28;20570;-85
2021/11/06 10:23:07;;;;;;;33.63;9.85;;;;;;;;;;5073555;28;20023;-84
2021/11/06 10:25:32;;;;;;;29.77;9.55;;;;;;;;;;5056817;28;20056;-84
2021/11/06 10:27:59;;;;;;;36.90;11.95;;;;;;;;;;5081885;28;20067;-84
2021/11/06 10:30:28;;;;;;;42.03;12.00;;;;;;;;;;5055616;28;20384;-84
2021/11/06 10:33:14;;;;;;;36.33;11.07;;;;;;;;;;5055361;28;20058;-84
2021/11/06 10:35:44;;;;;;;31.60;10.63;;;;;;;;;;5054345;28;20465;-84
2021/11/06 10:38:15;;;;;;;48.85;12.23;;;;;;;;;;5054488;28;20047;-84
2021/11/06 10:40:42;;;;;;;40.03;11.97;;;;;;;;;;5054356;28;20027;-84
2021/11/06 10:43:08;;;;;;;39.95;11.98;;;;;;;;;;5055104;28;20017;-85
2021/11/06 10:45:35;;;;;;;29.55;10.15;;;;;;;;;;5046158;28;20548;-84
2021/11/06 10:48:05;;;;;;;44.47;12.48;;;;;;;;;;5036173;28;20055;-84
2021/11/06 10:50:49;;;;;;;37.15;9.73;;;;;;;;;;5054103;28;20021;-85
2021/11/06 10:53:16;;;;;;;45.30;10.50;;;;;;;;;;5055601;28;20096;-84
2021/11/06 10:55:42;;;;;;;32.03;12.00;;;;;;;;;;5068960;28;20071;-84
2021/11/06 10:58:18;;;;;;;42.67;10.35;;;;;;;;;;5057775;28;20043;-84
2021/11/06 11:00:48;;;;;;;41.08;11.02;;;;;;;;;;5059408;28;20021;-84
2021/11/06 11:03:23;;;;;;;35.25;11.35;;;;;;;;;;5057407;28;20031;-84
2021/11/06 11:05:49;;;;;;;42.97;11.18;;;;;;;;;;5053653;28;20032;-85
2021/11/06 11:08:14;;;;;;;31.02;10.23;;;;;;;;;;5064438;28;20013;-84
2021/11/06 11:10:40;;;;;;;26.90;10.20;;;;;;;;;;5038429;28;20057;-84
2021/11/06 11:13:16;;;;;;;39.20;11.93;;;;;;;;;;5054979;28;20037;-84
2021/11/06 11:15:43;;;;;;;30.95;9.95;;;;;;;;;;5048278;28;20074;-84
2021/11/06 11:18:27;;;;;;;35.38;12.25;;;;;;;;;;5055080;28;20025;-84
2021/11/06 11:20:52;;;;;;;27.25;9.68;;;;;;;;;;5056370;28;20071;-84
2021/11/06 11:23:20;;;;;;;38.03;10.00;;;;;;;;;;5053267;28;20080;-84
2021/11/06 11:25:46;;;;;;;28.23;10.15;;;;;;;;;;5038175;28;20263;-84
2021/11/06 11:28:12;;;;;;;39.42;11.27;;;;;;;;;;5055235;28;20067;-84
2021/11/06 11:30:37;;;;;;;26.98;10.50;;;;;;;;;;5055190;28;20017;-84
2021/11/06 11:33:03;;;;;;;41.90;13.63;;;;;;;;;;5055389;28;20044;-85
2021/11/06 11:35:28;;;;;;;34.15;12.73;;;;;;;;;;5055278;28;20457;-84
2021/11/06 11:37:54;;;;;;;34.05;13.25;;;;;;;;;;5021030;28;20046;-84
2021/11/06 11:40:20;;;;;;;43.08;14.50;;;;;;;;;;5013371;28;20021;-84
2021/11/06 11:42:58;;;;;;;71.07;19.83;;;;;;;;;;5014294;28;20017;-84
2021/11/06 11:45:24;;;;;;;52.30;20.15;;;;;;;;;;5001449;28;20026;-84
2021/11/06 11:47:58;;;;;;;102.38;21.70;;;;;;;;;;5006820;28;20022;-84
2021/11/06 11:50:30;;;;;;;49.28;16.08;;;;;;;;;;5032202;28;20032;-85
2021/11/06 11:52:55;;;;;;;29.88;7.43;;;;;;;;;;5014685;28;20037;-83
2021/11/06 11:55:30;;;;;;;17.65;5.97;;;;;;;;;;5034370;28;20373;-83
2021/11/06 11:58:09;;;;;;;32.47;8.65;;;;;;;;;;5032058;28;20032;-83
2021/11/06 12:00:36;;;;;;;26.02;8.75;;;;;;;;;;5032051;28;20101;-83
2021/11/06 12:03:03;;;;;;;30.95;11.73;;;;;;;;;;5014254;28;20035;-84
2021/11/06 12:05:37;;;;;;;66.97;21.90;;;;;;;;;;5032366;28;20022;-84
2021/11/06 12:08:12;;;;;;;61.03;20.67;;;;;;;;;;5034836;28;20086;-85
2021/11/06 12:10:42;;;;;;;53.47;20.73;;;;;;;;;;5016946;28;20029;-84
2021/11/06 12:13:30;;;;;;;86.57;31.58;;;;;;;;;;5032478;28;20040;-84
2021/11/06 12:16:12;;;;;;;121.53;43.60;;;;;;;;;;5025480;28;20068;-83
2021/11/06 12:18:37;;;;;;;67.80;31.80;;;;;;;;;;5014054;28;20021;-84
2021/11/06 12:21:16;;;;;;;75.90;31.98;;;;;;;;;;5033098;28;20034;-84
2021/11/06 12:23:45;;;;;;;73.97;33.42;;;;;;;;;;5015486;28;20030;-84
2021/11/06 12:26:15;;;;;;;75.15;31.98;;;;;;;;;;5028251;28;20046;-84
2021/11/06 12:28:44;;;;;;;79.45;33.92;;;;;;;;;;5017906;28;20018;-84
2021/11/06 12:31:28;;;;;;;87.85;36.78;;;;;;;;;;5032970;28;20485;-84
2021/11/06 12:33:54;;;;;;;93.03;38.22;;;;;;;;;;5032512;28;20023;-84
2021/11/06 12:36:20;;;;;;;114.05;38.05;;;;;;;;;;5015332;28;20058;-83
2021/11/06 12:38:45;;;;;;;89.43;33.70;;;;;;;;;;5031375;28;20100;-84
2021/11/06 12:41:11;;;;;;;103.40;39.78;;;;;;;;;;5032495;28;20494;-84
2021/11/06 12:43:47;;;;;;;127.68;43.33;;;;;;;;;;5031856;28;20010;-84
2021/11/06 12:46:27;;;;;;;99.78;35.92;;;;;;;;;;5032214;28;20104;-84
2021/11/06 12:48:54;;;;;;;95.07;34.03;;;;;;;;;;5031779;28;20030;-84
2021/11/06 12:51:20;;;;;;;199.50;42.90;;;;;;;;;;5013615;28;20028;-85
2021/11/06 12:53:50;;;;;;;138.52;39.78;;;;;;;;;;5030584;28;20025;-85
2021/11/06 12:56:19;;;;;;;109.93;39.80;;;;;;;;;;5030477;28;20029;-85
2021/11/06 12:58:47;;;;;;;63.17;28.63;;;;;;;;;;5031116;28;20136;-84
2021/11/06 13:01:20;;;;;;;37.50;18.85;;;;;;;;;;5034495;28;20424;-84
2021/11/06 13:03:45;;;;;;;84.20;32.17;;;;;;;;;;5030101;28;20096;-84
2021/11/06 13:06:26;;;;;;;87.28;26.30;;;;;;;;;;5030053;28;20108;-84
2021/11/06 13:09:05;;;;;;;48.60;19.83;;;;;;;;;;5017116;28;20021;-83
2021/11/06 13:11:49;;;;;;;41.25;15.88;;;;;;;;;;5020308;28;20800;-83
2021/11/06 13:14:30;;;;;;;73.38;14.23;;;;;;;;;;5029759;28;20053;-84
2021/11/06 13:16:56;;;;;;;42.20;13.35;;;;;;;;;;5030869;28;20481;-83
2021/11/06 13:19:40;;;;;;;22.45;11.85;;;;;;;;;;5021952;28;20076;-83
2021/11/06 13:22:05;;;;;;;41.25;17.00;;;;;;;;;;5013674;28;20781;-84
2021/11/06 13:24:47;;;;;;;45.47;20.05;;;;;;;;;;5022645;28;20080;-83
2021/11/06 13:27:12;;;;;;;;;;;;;;;;;;5021675;28;20033;-83
2021/11/06 13:29:41;;;;;;;80.72;29.30;;;;;;;;;;5011102;28;19916;-86
2021/11/06 13:32:06;;;;;;;79.85;31.58;;;;;;;;;;5009626;28;20057;-83
2021/11/06 13:34:38;;;;;;;78.20;29.30;;;;;;;;;;5011012;28;20473;-83
2021/11/06 13:37:03;;;;;;;;;;;;;;;;;;5010599;28;20054;-83
2021/11/06 13:39:29;;;;;;;101.07;38.03;;;;;;;;;;5012505;28;19975;-83
2021/11/06 13:41:54;;;;;;;124.38;40.10;;;;;;;;;;5030581;28;20381;-83
2021/11/06 13:44:22;;;;;;;71.95;28.90;;;;;;;;;;5014744;28;20026;-83
2021/11/06 13:46:53;;;;;;;67.15;28.92;;;;;;;;;;5010712;28;20442;-83
2021/11/06 13:49:19;;;;;;;;;;;;;;;;;;5011548;28;20141;-83
2021/11/06 13:51:59;;;;;;;87.75;33.63;;;;;;;;;;5011971;28;20000;-83
2021/11/06 13:54:28;;;;;;;65.60;26.33;;;;;;;;;;5015087;28;20116;-83
2021/11/06 13:56:59;;;;;;;68.65;28.08;;;;;;;;;;5033899;28;20025;-83
2021/11/06 13:59:45;;;;;;;66.45;27.40;;;;;;;;;;5012223;28;20540;-83
2021/11/06 14:02:11;;;;;;;78.47;31.40;;;;;;;;;;5023138;28;20080;-83
2021/11/06 14:04:44;;;;;;;88.38;33.20;;;;;;;;;;5010301;28;20117;-83
2021/11/06 14:07:14;;;;;;;74.40;29.30;;;;;;;;;;5011203;28;20033;-84
2021/11/06 14:10:05;;;;;;;111.18;36.22;;;;;;;;;;5026143;28;20029;-84
2021/11/06 14:12:49;;;;;;;59.97;23.27;;;;;;;;;;5029351;28;20129;-84
2021/11/06 14:15:36;;;;;;;63.30;24.27;;;;;;;;;;5025541;28;20026;-83
2021/11/06 14:18:04;;;;;;;64.43;24.33;;;;;;;;;;5016518;28;20049;-84
2021/11/06 14:20:30;;;;;;;60.42;20.58;;;;;;;;;;5020574;28;20449;-83
2021/11/06 14:22:55;;;;;;;63.78;21.35;;;;;;;;;;5036835;28;20026;-83
2021/11/06 14:25:47;;;;;;;60.75;20.23;;;;;;;;;;5015836;28;20835;-83
2021/11/06 14:28:12;;;;;;;;;;;;;;;;;;5015141;28;20168;-83